createdAt,value
2023-01-19T00:02:17.349Z,24.18
2023-01-19T00:04:47.531Z,24.11
2023-01-19T00:07:18.673Z,24.12
2023-01-19T00:09:50.374Z,24.08
2023-01-19T00:12:22.005Z,24.11
2023-01-19T00:14:52.181Z,24.07
2023-01-19T00:17:21.947Z,24.02
2023-01-19T00:19:52.789Z,24.01
2023-01-19T00:22:23.120Z,23.96
2023-01-19T00:24:54.075Z,23.96
2023-01-19T00:27:25.512Z,23.93
2023-01-19T00:29:56.771Z,23.93
2023-01-19T00:32:27.430Z,23.94
2023-01-19T00:35:00.704Z,23.94
2023-01-19T00:37:30.845Z,23.91
2023-01-19T00:40:00.630Z,23.85
2023-01-19T00:42:45.529Z,23.89
2023-01-19T00:45:21.261Z,23.82
2023-01-19T00:47:58.213Z,23.77
2023-01-19T00:50:30.826Z,23.73
2023-01-19T00:53:05.748Z,23.75
2023-01-19T00:55:36.687Z,23.78
2023-01-19T00:58:08.706Z,23.81
2023-01-19T01:00:39.986Z,23.71
2023-01-19T01:03:10.621Z,23.71
2023-01-19T01:05:43.635Z,23.71
2023-01-19T01:08:14.577Z,23.73
2023-01-19T01:10:44.776Z,23.71
2023-01-19T01:13:20.790Z,23.67
2023-01-19T01:15:54.212Z,23.66
2023-01-19T01:18:25.783Z,23.68
2023-01-19T01:21:06.381Z,23.67
2023-01-19T01:23:37.761Z,23.66
2023-01-19T01:29:06.899Z,23.61
2023-01-19T01:31:38.502Z,23.63
2023-01-19T01:34:08.731Z,23.68
2023-01-19T01:36:39.040Z,23.75
2023-01-19T01:39:09.394Z,23.75
2023-01-19T01:41:39.573Z,23.82
2023-01-19T01:44:56.546Z,23.91
2023-01-19T01:47:48.683Z,23.94
2023-01-19T01:50:23.786Z,23.94
2023-01-19T01:53:08.472Z,23.96
2023-01-19T01:55:45.124Z,23.96
2023-01-19T01:58:17.796Z,23.94
2023-01-19T02:01:06.467Z,23.94
2023-01-19T02:03:39.095Z,23.88
2023-01-19T02:06:11.576Z,23.85
2023-01-19T02:09:08.769Z,23.82
2023-01-19T02:11:57.888Z,23.82
2023-01-19T02:14:29.668Z,23.82
2023-01-19T02:17:01.637Z,23.80
2023-01-19T02:19:44.246Z,23.77
2023-01-19T02:22:26.959Z,23.78
2023-01-19T02:24:58.050Z,23.77
2023-01-19T02:27:29.564Z,23.73
2023-01-19T02:30:01.429Z,23.71
2023-01-19T02:32:31.904Z,23.70
2023-01-19T02:35:03.718Z,23.61
2023-01-19T02:37:39.282Z,23.60
2023-01-19T02:40:21.271Z,23.56
2023-01-19T02:42:53.815Z,23.56
2023-01-19T02:45:25.070Z,23.54
2023-01-19T02:47:55.993Z,23.50
2023-01-19T02:50:38.824Z,23.47
2023-01-19T02:53:48.867Z,23.45
2023-01-19T02:56:29.624Z,23.43
2023-01-19T02:59:05.129Z,23.40
2023-01-19T03:01:59.429Z,23.40
2023-01-19T03:04:41.376Z,23.40
2023-01-19T03:07:31.220Z,23.45
2023-01-19T03:10:38.766Z,23.37
2023-01-19T03:13:09.315Z,23.37
2023-01-19T03:15:59.705Z,23.36
2023-01-19T03:18:33.617Z,23.31
2023-01-19T03:21:07.630Z,23.36
2023-01-19T03:23:41.368Z,23.39
2023-01-19T03:26:16.574Z,23.39
2023-01-19T03:28:49.666Z,23.39
2023-01-19T03:31:24.328Z,23.34
2023-01-19T03:34:01.844Z,23.24
2023-01-19T03:36:38.539Z,23.27
2023-01-19T03:39:12.769Z,23.30
2023-01-19T03:41:46.601Z,23.33
2023-01-19T03:44:19.029Z,23.31
2023-01-19T03:46:51.569Z,23.30
2023-01-19T03:49:22.598Z,23.29
2023-01-19T03:51:52.949Z,23.29
2023-01-19T03:54:24.199Z,23.29
2023-01-19T03:56:54.233Z,23.29
2023-01-19T03:59:25.350Z,23.26
2023-01-19T04:01:56.047Z,23.27
2023-01-19T04:04:26.666Z,23.26
2023-01-19T04:06:56.427Z,23.20
2023-01-19T04:09:28.287Z,23.23
2023-01-19T04:12:04.444Z,23.27
2023-01-19T04:14:34.554Z,23.27
2023-01-19T04:17:04.746Z,23.30
2023-01-19T04:19:35.061Z,23.27
2023-01-19T04:22:05.964Z,23.34
2023-01-19T04:27:33.714Z,23.26
2023-01-19T04:30:05.116Z,23.27
2023-01-19T04:32:35.896Z,23.29
2023-01-19T04:35:06.741Z,23.33
2023-01-19T04:37:36.551Z,23.30
2023-01-19T04:40:07.667Z,23.31
2023-01-19T04:42:38.691Z,23.26
2023-01-19T04:45:10.661Z,23.26
2023-01-19T04:47:41.217Z,23.29
2023-01-19T04:50:12.384Z,23.29
2023-01-19T04:52:42.884Z,23.30
2023-01-19T04:55:14.016Z,23.34
2023-01-19T04:57:45.450Z,23.37
2023-01-19T05:00:16.472Z,23.40
2023-01-19T05:02:47.339Z,23.36
2023-01-19T05:05:18.334Z,23.42
2023-01-19T05:07:48.462Z,23.45
2023-01-19T05:10:18.606Z,23.46
2023-01-19T05:12:49.188Z,23.47
2023-01-19T05:15:20.707Z,23.46
2023-01-19T05:17:50.843Z,23.42
2023-01-19T05:20:21.711Z,23.45
2023-01-19T05:22:52.998Z,23.49
2023-01-19T05:25:24.949Z,23.53
2023-01-19T05:27:55.305Z,23.54
2023-01-19T05:30:25.419Z,23.51
2023-01-19T05:32:55.720Z,23.53
2023-01-19T05:35:35.364Z,23.56
2023-01-19T05:38:06.701Z,23.53
2023-01-19T05:40:36.645Z,23.50
2023-01-19T05:43:07.092Z,23.51
2023-01-19T05:45:36.791Z,23.53
2023-01-19T05:48:09.361Z,23.57
2023-01-19T05:50:39.869Z,23.56
2023-01-19T05:53:11.271Z,23.59
2023-01-19T05:55:41.415Z,23.57
2023-01-19T05:58:11.280Z,23.57
2023-01-19T06:00:42.236Z,23.57
2023-01-19T06:03:13.028Z,23.56
2023-01-19T06:05:44.258Z,23.51
2023-01-19T06:08:14.411Z,23.51
2023-01-19T06:10:45.247Z,23.50
2023-01-19T06:13:15.596Z,23.46
2023-01-19T06:15:47.397Z,23.47
2023-01-19T06:18:17.865Z,23.46
2023-01-19T06:20:48.038Z,23.45
2023-01-19T06:23:18.082Z,23.46
2023-01-19T06:25:48.785Z,23.45
2023-01-19T06:28:19.762Z,23.36
2023-01-19T06:30:59.546Z,23.33
2023-01-19T06:33:30.158Z,23.27
2023-01-19T06:36:00.902Z,23.23
2023-01-19T06:38:31.446Z,23.20
2023-01-19T06:41:07.038Z,23.12
2023-01-19T06:43:37.534Z,23.10
2023-01-19T06:46:07.570Z,23.03
2023-01-19T06:48:38.763Z,23.05
2023-01-19T06:51:10.230Z,23.10
2023-01-19T06:53:40.343Z,23.12
2023-01-19T06:56:11.087Z,23.15
2023-01-19T06:58:43.762Z,23.16
2023-01-19T07:01:14.136Z,23.19
2023-01-19T07:03:45.526Z,23.20
2023-01-19T07:06:17.411Z,23.20
2023-01-19T07:08:47.544Z,23.15
2023-01-19T07:11:24.817Z,23.12
2023-01-19T07:14:01.140Z,23.03
2023-01-19T07:16:30.892Z,23.02
2023-01-19T07:19:01.422Z,22.98
2023-01-19T07:21:31.863Z,22.92
2023-01-19T07:24:02.146Z,22.91
2023-01-19T07:26:32.557Z,22.89
2023-01-19T07:29:03.818Z,22.84
2023-01-19T07:31:34.550Z,22.87
2023-01-19T07:34:04.870Z,22.87
2023-01-19T07:36:35.079Z,22.79
2023-01-19T07:39:04.936Z,22.79
2023-01-19T07:41:36.095Z,22.78
2023-01-19T07:44:10.150Z,22.78
2023-01-19T07:46:41.195Z,22.84
2023-01-19T07:49:11.764Z,22.91
2023-01-19T07:51:41.675Z,22.88
2023-01-19T07:54:13.296Z,22.87
2023-01-19T07:56:45.308Z,22.79
2023-01-19T07:59:15.784Z,22.79
2023-01-19T08:01:45.751Z,22.78
2023-01-19T08:04:15.939Z,22.76
2023-01-19T08:06:47.075Z,22.78
2023-01-19T08:09:17.520Z,22.84
2023-01-19T08:11:47.349Z,22.87
2023-01-19T08:14:17.724Z,22.84
2023-01-19T08:16:48.459Z,22.81
2023-01-19T08:19:20.460Z,22.78
2023-01-19T08:21:51.565Z,22.85
2023-01-19T08:24:23.929Z,22.94
2023-01-19T08:27:01.567Z,23.01
2023-01-19T08:29:33.015Z,23.05
2023-01-19T08:32:04.377Z,23.13
2023-01-19T08:34:36.452Z,23.15
2023-01-19T08:37:06.454Z,23.18
2023-01-19T08:39:36.258Z,23.19
2023-01-19T08:42:06.820Z,23.23
2023-01-19T08:44:43.757Z,23.26
2023-01-19T08:47:19.897Z,23.31
2023-01-19T08:49:49.650Z,23.27
2023-01-19T08:52:19.922Z,23.31
2023-01-19T08:54:50.504Z,23.29
2023-01-19T08:57:20.821Z,23.31
2023-01-19T08:59:50.953Z,23.31
2023-01-19T09:02:20.846Z,23.34
2023-01-19T09:04:53.410Z,23.34
2023-01-19T09:07:23.875Z,23.39
2023-01-19T09:09:54.361Z,23.40
2023-01-19T09:12:24.682Z,23.46
2023-01-19T09:14:54.396Z,23.53
2023-01-19T09:17:24.929Z,23.60
2023-01-19T09:19:55.595Z,23.68
2023-01-19T09:22:25.522Z,23.64
2023-01-19T09:24:55.882Z,23.67
2023-01-19T09:27:27.490Z,23.63
2023-01-19T09:29:58.732Z,23.67
2023-01-19T09:32:29.245Z,23.74
2023-01-19T09:34:59.103Z,23.73
2023-01-19T09:37:29.618Z,23.91
2023-01-19T09:40:01.043Z,24.01
2023-01-19T09:42:37.687Z,24.07
2023-01-19T09:45:15.574Z,24.22
2023-01-19T09:47:50.082Z,24.40
2023-01-19T09:50:33.786Z,24.46
2023-01-19T09:53:20.302Z,24.55
2023-01-19T09:55:51.541Z,24.55
2023-01-19T09:58:22.447Z,24.62
2023-01-19T10:00:59.568Z,24.82
2023-01-19T10:03:31.684Z,24.88
2023-01-19T10:06:06.091Z,25.02
2023-01-19T10:09:14.031Z,25.55
2023-01-19T10:11:53.692Z,25.72
2023-01-19T10:14:44.408Z,25.79
2023-01-19T10:17:35.936Z,25.68
2023-01-19T10:20:10.456Z,25.52
2023-01-19T10:22:44.544Z,25.27
2023-01-19T10:25:24.905Z,25.20
2023-01-19T10:27:55.049Z,25.18
2023-01-19T10:30:30.164Z,25.15
2023-01-19T10:33:02.418Z,25.13
2023-01-19T10:35:33.246Z,25.14
2023-01-19T10:38:05.432Z,25.04
2023-01-19T10:40:36.559Z,25.18
2023-01-19T10:43:46.196Z,25.28
2023-01-19T10:46:45.482Z,26.20
2023-01-19T10:49:31.650Z,27.29
2023-01-19T10:52:03.727Z,28.27
2023-01-19T10:54:37.524Z,28.77
2023-01-19T10:57:12.065Z,28.32
2023-01-19T10:59:52.001Z,28.05
2023-01-19T11:02:30.257Z,28.19
2023-01-19T11:05:03.485Z,27.96
2023-01-19T11:07:35.474Z,27.61
2023-01-19T11:10:18.505Z,27.08
2023-01-19T11:13:13.959Z,26.62
2023-01-19T11:15:50.932Z,26.36
2023-01-19T11:18:37.698Z,26.64
2023-01-19T11:21:19.002Z,27.78
2023-01-19T11:23:56.503Z,28.36
2023-01-19T11:26:32.996Z,27.83
2023-01-19T11:29:06.467Z,27.28
2023-01-19T11:31:37.317Z,27.01
2023-01-19T11:34:35.070Z,26.75
2023-01-19T11:37:22.175Z,27.46
2023-01-19T11:39:59.365Z,28.21
2023-01-19T11:42:34.470Z,28.55
2023-01-19T11:45:08.180Z,28.60
2023-01-19T11:47:48.278Z,29.11
2023-01-19T11:50:26.100Z,30.32
2023-01-19T11:53:08.200Z,30.57
2023-01-19T11:56:08.263Z,30.23
2023-01-19T11:58:45.922Z,29.75
2023-01-19T12:01:36.331Z,30.09
2023-01-19T12:04:15.490Z,31.29
2023-01-19T12:06:56.667Z,31.23
2023-01-19T12:09:29.172Z,31.76
2023-01-19T12:12:05.297Z,32.14
2023-01-19T12:15:09.793Z,32.28
2023-01-19T12:17:55.726Z,32.07
2023-01-19T12:20:40.280Z,32.28
2023-01-19T12:23:16.473Z,32.38
2023-01-19T12:25:55.325Z,32.45
2023-01-19T12:28:34.190Z,31.76
2023-01-19T12:31:06.169Z,31.72
2023-01-19T12:33:42.487Z,30.95
2023-01-19T12:36:36.147Z,31.05
2023-01-19T12:39:16.138Z,31.25
2023-01-19T12:41:49.536Z,31.83
2023-01-19T12:44:26.255Z,31.59
2023-01-19T12:47:21.369Z,31.16
2023-01-19T12:49:56.984Z,30.53
2023-01-19T12:52:36.171Z,30.75
2023-01-19T12:55:15.622Z,31.50
2023-01-19T12:57:58.449Z,31.83
2023-01-19T13:00:31.322Z,31.72
2023-01-19T13:03:06.445Z,31.56
2023-01-19T13:05:43.074Z,31.83
2023-01-19T13:08:13.712Z,31.93
2023-01-19T13:11:04.096Z,32.23
2023-01-19T13:13:51.624Z,31.66
2023-01-19T13:16:23.532Z,30.39
2023-01-19T13:18:55.266Z,30.87
2023-01-19T13:21:34.476Z,31.74
2023-01-19T13:24:08.269Z,32.23
2023-01-19T13:26:55.611Z,32.76
2023-01-19T13:29:41.729Z,33.04
2023-01-19T13:32:22.568Z,32.08
2023-01-19T13:35:02.875Z,31.53
2023-01-19T13:37:52.257Z,31.77
2023-01-19T13:40:33.169Z,32.56
2023-01-19T13:43:04.332Z,33.02
2023-01-19T13:45:39.175Z,34.61
2023-01-19T13:48:19.225Z,33.78
2023-01-19T13:51:17.689Z,32.96
2023-01-19T13:53:59.314Z,32.16
2023-01-19T13:56:30.770Z,31.76
2023-01-19T13:59:11.680Z,31.69
2023-01-19T14:01:45.038Z,31.72
2023-01-19T14:04:37.400Z,32.37
2023-01-19T14:07:27.467Z,32.96
2023-01-19T14:10:12.569Z,33.29
2023-01-19T14:12:58.206Z,32.62
2023-01-19T14:15:30.940Z,33.07
2023-01-19T14:18:32.588Z,32.72
2023-01-19T14:21:12.372Z,32.21
2023-01-19T14:23:45.678Z,32.71
2023-01-19T14:26:42.856Z,33.33
2023-01-19T14:29:32.937Z,33.85
2023-01-19T14:32:28.837Z,32.59
2023-01-19T14:35:05.859Z,32.39
2023-01-19T14:37:38.644Z,32.83
2023-01-19T14:40:16.625Z,32.06
2023-01-19T14:42:54.284Z,31.38
2023-01-19T14:45:37.859Z,32.49
2023-01-19T14:48:23.761Z,33.07
2023-01-19T14:51:03.847Z,32.82
2023-01-19T14:53:40.553Z,33.02
2023-01-19T14:56:17.680Z,33.27
2023-01-19T14:58:49.379Z,33.33
2023-01-19T15:01:20.474Z,33.49
2023-01-19T15:03:50.569Z,33.51
2023-01-19T15:06:23.405Z,33.95
2023-01-19T15:08:57.247Z,33.91
2023-01-19T15:11:36.321Z,33.77
2023-01-19T15:14:07.032Z,34.08
2023-01-19T15:16:39.694Z,34.23
2023-01-19T15:19:18.163Z,34.26
2023-01-19T15:21:48.586Z,33.74
2023-01-19T15:24:19.016Z,33.60
2023-01-19T15:26:50.852Z,33.94
2023-01-19T15:29:28.179Z,32.92
2023-01-19T15:31:58.569Z,33.46
2023-01-19T15:34:28.838Z,34.87
2023-01-19T15:37:01.251Z,34.46
2023-01-19T15:39:31.667Z,34.97
2023-01-19T15:42:02.830Z,34.93
2023-01-19T15:44:33.378Z,34.94
2023-01-19T15:47:03.962Z,34.02
2023-01-19T15:49:34.537Z,34.28
2023-01-19T15:52:04.266Z,34.18
2023-01-19T15:54:35.537Z,34.88
2023-01-19T15:57:08.008Z,34.67
2023-01-19T15:59:39.930Z,34.11
2023-01-19T16:02:11.726Z,34.45
2023-01-19T16:04:41.851Z,35.23
2023-01-19T16:07:11.677Z,35.42
2023-01-19T16:09:41.933Z,35.85
2023-01-19T16:12:12.069Z,35.48
2023-01-19T16:14:44.323Z,34.25
2023-01-19T16:17:14.633Z,33.82
2023-01-19T16:19:44.580Z,32.96
2023-01-19T16:22:15.993Z,33.02
2023-01-19T16:24:48.353Z,34.56
2023-01-19T16:27:18.587Z,35.83
2023-01-19T16:29:50.026Z,34.94
2023-01-19T16:32:22.706Z,33.90
2023-01-19T16:34:58.567Z,34.25
2023-01-19T16:37:28.870Z,32.92
2023-01-19T16:39:59.104Z,32.98
2023-01-19T16:42:30.383Z,33.55
2023-01-19T16:45:01.861Z,34.61
2023-01-19T16:47:32.323Z,34.36
2023-01-19T16:50:02.372Z,34.61
2023-01-19T16:52:32.652Z,35.46
2023-01-19T16:55:03.997Z,35.49
2023-01-19T16:57:34.694Z,35.78
2023-01-19T17:00:06.336Z,35.65
2023-01-19T17:02:37.426Z,34.48
2023-01-19T17:05:08.296Z,33.29
2023-01-19T17:07:39.263Z,32.44
2023-01-19T17:10:13.415Z,32.82
2023-01-19T17:12:44.114Z,32.29
2023-01-19T17:15:14.571Z,32.16
2023-01-19T17:17:46.088Z,31.96
2023-01-19T17:20:16.097Z,32.13
2023-01-19T17:22:45.822Z,33.40
2023-01-19T17:25:17.567Z,33.64
2023-01-19T17:27:48.114Z,34.19
2023-01-19T17:30:18.840Z,34.38
2023-01-19T17:32:49.120Z,34.52
2023-01-19T17:35:18.909Z,33.53
2023-01-19T17:37:51.269Z,32.35
2023-01-19T17:40:22.055Z,32.56
2023-01-19T17:42:54.168Z,34.09
2023-01-19T17:45:25.015Z,35.01
2023-01-19T17:47:55.906Z,34.33
2023-01-19T17:50:26.307Z,34.60
2023-01-19T17:52:57.418Z,34.18
2023-01-19T17:55:27.648Z,34.52
2023-01-19T17:58:00.333Z,34.26
2023-01-19T18:00:31.793Z,33.12
2023-01-19T18:03:02.574Z,33.02
2023-01-19T18:05:32.911Z,32.95
2023-01-19T18:08:03.255Z,31.91
2023-01-19T18:10:35.371Z,32.27
2023-01-19T18:13:06.870Z,32.41
2023-01-19T18:15:37.318Z,31.81
2023-01-19T18:18:07.090Z,32.48
2023-01-19T18:20:41.701Z,33.20
2023-01-19T18:23:14.204Z,32.92
2023-01-19T18:25:45.203Z,33.07
2023-01-19T18:28:15.758Z,33.17
2023-01-19T18:30:46.273Z,33.82
2023-01-19T18:33:16.496Z,33.88
2023-01-19T18:35:47.786Z,34.09
2023-01-19T18:38:19.373Z,34.18
2023-01-19T18:40:49.842Z,34.23
2023-01-19T18:43:19.555Z,34.19
2023-01-19T18:45:51.418Z,33.72
2023-01-19T18:48:22.640Z,33.07
2023-01-19T18:50:53.552Z,32.66
2023-01-19T18:53:23.716Z,32.42
2023-01-19T18:55:59.196Z,32.27
2023-01-19T18:58:30.357Z,32.58
2023-01-19T19:01:02.589Z,32.87
2023-01-19T19:03:32.965Z,32.82
2023-01-19T19:06:06.563Z,32.31
2023-01-19T19:08:37.297Z,32.79
2023-01-19T19:11:12.705Z,32.25
2023-01-19T19:13:44.098Z,32.71
2023-01-19T19:16:14.948Z,32.69
2023-01-19T19:18:45.898Z,32.83
2023-01-19T19:21:19.872Z,32.23
2023-01-19T19:23:56.064Z,31.96
2023-01-19T19:26:29.156Z,32.14
2023-01-19T19:29:00.228Z,31.86
2023-01-19T19:31:31.474Z,31.69
2023-01-19T19:34:01.791Z,31.57
2023-01-19T19:36:33.718Z,31.57
2023-01-19T19:39:04.696Z,31.29
2023-01-19T19:41:36.465Z,31.07
2023-01-19T19:44:07.073Z,30.80
2023-01-19T19:46:38.421Z,30.80
2023-01-19T19:49:09.276Z,30.80
2023-01-19T19:51:40.743Z,30.09
2023-01-19T19:54:11.209Z,29.37
2023-01-19T19:56:41.861Z,29.08
2023-01-19T19:59:12.876Z,29.17
2023-01-19T20:01:45.015Z,29.17
2023-01-19T20:04:16.333Z,29.43
2023-01-19T20:06:46.325Z,29.41
2023-01-19T20:09:18.059Z,29.52
2023-01-19T20:11:50.193Z,29.76
2023-01-19T20:14:28.069Z,29.47
2023-01-19T20:16:58.237Z,29.20
2023-01-19T20:19:30.151Z,29.06
2023-01-19T20:22:02.395Z,28.82
2023-01-19T20:24:33.109Z,28.69
2023-01-19T20:27:03.282Z,28.80
2023-01-19T20:29:33.125Z,28.73
2023-01-19T20:32:03.872Z,28.63
2023-01-19T20:34:36.696Z,28.52
2023-01-19T20:37:07.653Z,28.39
2023-01-19T20:39:38.823Z,28.18
2023-01-19T20:42:12.535Z,27.91
2023-01-19T20:44:43.972Z,27.77
2023-01-19T20:47:16.620Z,27.83
2023-01-19T20:49:46.819Z,27.88
2023-01-19T20:52:16.847Z,27.84
2023-01-19T20:54:48.012Z,27.78
2023-01-19T20:57:19.476Z,27.78
2023-01-19T20:59:49.910Z,27.84
2023-01-19T21:02:19.926Z,27.71
2023-01-19T21:04:50.454Z,27.71
2023-01-19T21:07:21.278Z,27.66
2023-01-19T21:09:52.634Z,27.67
2023-01-19T21:12:24.062Z,27.53
2023-01-19T21:14:54.410Z,27.43
2023-01-19T21:17:25.205Z,27.45
2023-01-19T21:19:55.840Z,27.36
2023-01-19T21:22:25.624Z,27.22
2023-01-19T21:24:55.555Z,27.26
2023-01-19T21:27:25.867Z,27.16
2023-01-19T21:29:56.713Z,27.02
2023-01-19T21:32:27.095Z,27.02
2023-01-19T21:34:59.294Z,26.92
2023-01-19T21:37:32.807Z,26.84
2023-01-19T21:40:03.659Z,26.71
2023-01-19T21:42:44.642Z,26.68
2023-01-19T21:45:15.310Z,26.70
2023-01-19T21:47:45.370Z,26.64
2023-01-19T21:50:16.375Z,26.52
2023-01-19T21:52:46.738Z,26.40
2023-01-19T21:55:17.304Z,26.31
2023-01-19T21:57:47.088Z,26.24
2023-01-19T22:00:17.423Z,26.23
2023-01-19T22:03:02.386Z,26.16
2023-01-19T22:05:37.506Z,26.17
2023-01-19T22:08:08.528Z,26.03
2023-01-19T22:10:39.381Z,25.92
2023-01-19T22:13:09.172Z,25.82
2023-01-19T22:15:39.669Z,25.79
2023-01-19T22:18:10.683Z,25.69
2023-01-19T22:20:41.214Z,25.59
2023-01-19T22:23:11.784Z,25.51
2023-01-19T22:25:42.688Z,25.54
2023-01-19T22:28:14.161Z,25.52
2023-01-19T22:30:45.101Z,25.45
2023-01-19T22:33:21.325Z,25.31
2023-01-19T22:35:52.336Z,25.21
2023-01-19T22:38:25.228Z,25.15
2023-01-19T22:40:59.085Z,25.11
2023-01-19T22:43:31.375Z,25.06
2023-01-19T22:46:06.628Z,25.03
2023-01-19T22:48:39.433Z,24.96
2023-01-19T22:51:10.737Z,24.96
2023-01-19T22:53:41.606Z,24.91
2023-01-19T22:56:24.359Z,24.86
2023-01-19T22:58:55.871Z,24.79
2023-01-19T23:01:29.374Z,24.77
2023-01-19T23:04:00.200Z,24.70
2023-01-19T23:06:33.351Z,24.69
2023-01-19T23:09:07.887Z,24.62
2023-01-19T23:11:41.766Z,24.56
2023-01-19T23:14:18.149Z,24.49
2023-01-19T23:16:48.693Z,24.46
2023-01-19T23:19:20.510Z,24.42
2023-01-19T23:21:54.047Z,24.39
2023-01-19T23:24:24.912Z,24.36
2023-01-19T23:26:55.531Z,24.28
2023-01-19T23:29:27.174Z,24.22
2023-01-19T23:31:58.122Z,24.17
2023-01-19T23:34:28.355Z,24.15
2023-01-19T23:36:58.776Z,24.12
2023-01-19T23:39:30.036Z,24.09
2023-01-19T23:42:00.007Z,24.07
2023-01-19T23:44:29.735Z,24.00
2023-01-19T23:46:59.887Z,23.96
2023-01-19T23:49:30.107Z,23.91
2023-01-19T23:52:01.838Z,23.89
2023-01-19T23:54:32.571Z,23.89
2023-01-19T23:57:02.882Z,23.87
2023-01-19T23:59:34.665Z,23.88
